Time;durP1;ratioP1;P1;durP2;ratioP2;P2;SDS_P1;SDS_P2;PMS_P1;PMS_P2;Temp;Humidity;BMP_temperature;BMP_pressure;BME280_temperature;BME280_humidity;BME280_pressure;Samples;Min_cycle;Max_cycle;Signal;HPM_P1;HPM_P2
2022/03/12 00:01:24;;;;;;;39.72;16.83;;;;;;;;;;5035582;28;20103;-74
2022/03/12 00:03:50;;;;;;;38.30;16.90;;;;;;;;;;5035703;28;20037;-69
2022/03/12 00:06:22;;;;;;;38.13;19.42;;;;;;;;;;5035375;28;20021;-73
2022/03/12 00:08:51;;;;;;;36.47;18.08;;;;;;;;;;5035161;28;20072;-74
2022/03/12 00:11:20;;;;;;;39.97;20.17;;;;;;;;;;5035065;28;20029;-72
2022/03/12 00:13:47;;;;;;;42.60;20.20;;;;;;;;;;5039154;28;20245;-72
2022/03/12 00:16:14;;;;;;;34.25;17.08;;;;;;;;;;5035114;28;20029;-71
2022/03/12 00:18:43;;;;;;;40.08;18.38;;;;;;;;;;5034715;28;20037;-73
2022/03/12 00:21:13;;;;;;;33.92;17.58;;;;;;;;;;5034486;28;20025;-68
2022/03/12 00:23:43;;;;;;;28.55;15.55;;;;;;;;;;5034647;28;20041;-74
2022/03/12 00:26:09;;;;;;;27.23;12.55;;;;;;;;;;5034848;28;20032;-71
2022/03/12 00:28:35;;;;;;;29.65;15.65;;;;;;;;;;5034694;28;20505;-72
2022/03/12 00:31:01;;;;;;;30.38;15.65;;;;;;;;;;5034851;28;20071;-73
2022/03/12 00:33:27;;;;;;;32.83;15.75;;;;;;;;;;5034292;28;20091;-71
2022/03/12 00:35:53;;;;;;;27.75;13.85;;;;;;;;;;5034536;28;20029;-70
2022/03/12 00:38:23;;;;;;;30.55;14.88;;;;;;;;;;5034618;28;20033;-74
2022/03/12 00:40:49;;;;;;;27.20;15.45;;;;;;;;;;5034899;28;20033;-70
2022/03/12 00:43:17;;;;;;;29.15;15.48;;;;;;;;;;5034478;28;20057;-73
2022/03/12 00:45:46;;;;;;;33.85;17.30;;;;;;;;;;5034521;28;20029;-72
2022/03/12 00:48:11;;;;;;;33.28;17.73;;;;;;;;;;5034433;28;20025;-73
2022/03/12 00:50:37;;;;;;;30.67;16.48;;;;;;;;;;5034166;28;20026;-70
2022/03/12 00:53:03;;;;;;;26.48;16.02;;;;;;;;;;5034489;28;20391;-71
2022/03/12 00:55:29;;;;;;;35.75;18.13;;;;;;;;;;5034484;28;20028;-71
2022/03/12 00:57:55;;;;;;;28.33;16.08;;;;;;;;;;5034239;28;20426;-72
2022/03/12 01:00:23;;;;;;;26.92;14.45;;;;;;;;;;5034377;28;20028;-74
2022/03/12 01:02:49;;;;;;;28.27;13.90;;;;;;;;;;5033881;28;20033;-68
2022/03/12 01:05:18;;;;;;;28.70;13.77;;;;;;;;;;5032511;28;20022;-74
2022/03/12 01:07:45;;;;;;;22.80;13.25;;;;;;;;;;5033863;28;20029;-67
2022/03/12 01:10:12;;;;;;;20.98;12.05;;;;;;;;;;5034040;28;20100;-65
2022/03/12 01:12:38;;;;;;;20.23;11.55;;;;;;;;;;5033911;28;20059;-66
2022/03/12 01:15:05;;;;;;;18.38;11.65;;;;;;;;;;5033944;28;20030;-72
2022/03/12 01:17:33;;;;;;;21.20;11.23;;;;;;;;;;5033720;28;20736;-72
2022/03/12 01:20:05;;;;;;;20.38;11.68;;;;;;;;;;5033650;28;20030;-74
2022/03/12 01:22:36;;;;;;;18.48;11.15;;;;;;;;;;5033126;28;20079;-72
2022/03/12 01:25:04;;;;;;;20.77;11.50;;;;;;;;;;5033467;28;20037;-75
2022/03/12 01:27:30;;;;;;;21.15;10.38;;;;;;;;;;5047256;28;20399;-73
2022/03/12 01:29:56;;;;;;;17.63;10.50;;;;;;;;;;5052435;28;20033;-67
2022/03/12 01:32:24;;;;;;;27.80;14.10;;;;;;;;;;5052711;28;20033;-72
2022/03/12 01:34:50;;;;;;;20.13;11.90;;;;;;;;;;5054345;28;20035;-72
2022/03/12 01:37:20;;;;;;;22.15;11.68;;;;;;;;;;5054039;28;20071;-70
2022/03/12 01:39:47;;;;;;;20.88;11.60;;;;;;;;;;5054190;28;20029;-71
2022/03/12 01:42:15;;;;;;;21.38;12.00;;;;;;;;;;5054092;28;20029;-71
2022/03/12 01:44:42;;;;;;;21.75;12.48;;;;;;;;;;5053708;28;20310;-72
2022/03/12 01:47:11;;;;;;;16.80;10.27;;;;;;;;;;5053163;28;20024;-70
2022/03/12 01:49:38;;;;;;;19.00;11.30;;;;;;;;;;5054017;28;20044;-71
2022/03/12 01:52:04;;;;;;;20.05;11.30;;;;;;;;;;5053763;28;20391;-72
2022/03/12 01:54:32;;;;;;;21.13;11.50;;;;;;;;;;5053867;28;20399;-66
2022/03/12 01:56:58;;;;;;;21.70;12.10;;;;;;;;;;5053857;28;20503;-70
2022/03/12 01:59:25;;;;;;;21.88;12.02;;;;;;;;;;5053809;28;20037;-72
2022/03/12 02:01:52;;;;;;;20.75;13.00;;;;;;;;;;5053906;28;20025;-71
2022/03/12 02:04:22;;;;;;;24.92;12.70;;;;;;;;;;5053733;28;20426;-66
2022/03/12 02:06:50;;;;;;;18.60;11.43;;;;;;;;;;5053835;28;20412;-66
2022/03/12 02:09:18;;;;;;;17.80;11.27;;;;;;;;;;5046454;28;20030;-73
2022/03/12 02:11:49;;;;;;;25.52;11.38;;;;;;;;;;5032991;28;20030;-66
2022/03/12 02:14:17;;;;;;;21.73;12.15;;;;;;;;;;5032545;28;20504;-71
2022/03/12 02:16:49;;;;;;;19.55;11.25;;;;;;;;;;5032748;28;20024;-67
2022/03/12 02:19:17;;;;;;;17.10;10.73;;;;;;;;;;5032309;28;20033;-66
2022/03/12 02:21:57;;;;;;;16.38;9.80;;;;;;;;;;5032868;28;20025;-72
2022/03/12 02:24:29;;;;;;;13.15;8.25;;;;;;;;;;5032770;28;20040;-65
2022/03/12 02:26:57;;;;;;;18.92;9.18;;;;;;;;;;5032438;28;20030;-69
2022/03/12 02:29:24;;;;;;;19.05;11.18;;;;;;;;;;5045659;28;20035;-67
2022/03/12 02:32:03;;;;;;;17.88;10.88;;;;;;;;;;5052186;28;20045;-67
2022/03/12 02:34:38;;;;;;;18.15;10.20;;;;;;;;;;5052558;28;20037;-65
2022/03/12 02:37:05;;;;;;;19.42;10.32;;;;;;;;;;5052544;28;20025;-67
2022/03/12 02:39:34;;;;;;;17.70;9.50;;;;;;;;;;5052136;28;20017;-67
2022/03/12 02:42:00;;;;;;;17.48;9.32;;;;;;;;;;5052292;28;20048;-69
2022/03/12 02:44:28;;;;;;;14.82;9.30;;;;;;;;;;5052074;28;20036;-73
2022/03/12 02:47:15;;;;;;;14.90;9.60;;;;;;;;;;5051941;28;20391;-70
2022/03/12 02:50:07;;;;;;;17.08;10.80;;;;;;;;;;5052316;28;20033;-68
2022/03/12 02:52:41;;;;;;;16.77;8.88;;;;;;;;;;5051881;28;20049;-67
2022/03/12 02:55:31;;;;;;;17.33;9.05;;;;;;;;;;5052023;28;20525;-66
2022/03/12 02:57:57;;;;;;;15.48;9.32;;;;;;;;;;5050864;28;20127;-67
2022/03/12 03:00:23;;;;;;;17.35;10.07;;;;;;;;;;5052371;28;20101;-65
2022/03/12 03:02:53;;;;;;;18.73;9.75;;;;;;;;;;5051830;28;20387;-64
2022/03/12 03:07:57;;;;;;;18.50;10.13;;;;;;;;;;5053197;28;20048;-65
2022/03/12 03:10:30;;;;;;;17.60;9.57;;;;;;;;;;5052747;28;20438;-67
2022/03/12 03:12:58;;;;;;;16.60;9.65;;;;;;;;;;5051803;28;20029;-67
2022/03/12 03:15:25;;;;;;;15.13;9.73;;;;;;;;;;5050840;28;20044;-66
2022/03/12 03:17:51;;;;;;;14.93;9.13;;;;;;;;;;5051995;28;20108;-65
2022/03/12 03:20:18;;;;;;;14.60;8.95;;;;;;;;;;5052109;28;20100;-65
2022/03/12 03:22:44;;;;;;;18.23;9.43;;;;;;;;;;5050824;28;20120;-65
2022/03/12 03:25:09;;;;;;;21.73;10.23;;;;;;;;;;5051941;28;20055;-66
2022/03/12 03:27:35;;;;;;;16.45;9.80;;;;;;;;;;5051712;28;20044;-66
2022/03/12 03:30:01;;;;;;;18.75;10.27;;;;;;;;;;5054678;28;20478;-65
2022/03/12 03:32:26;;;;;;;18.05;10.88;;;;;;;;;;5055630;28;20120;-65
2022/03/12 03:34:52;;;;;;;25.33;11.95;;;;;;;;;;5055731;28;20075;-69
2022/03/12 03:37:18;;;;;;;24.38;10.30;;;;;;;;;;5055758;28;20036;-66
2022/03/12 03:39:44;;;;;;;14.32;9.10;;;;;;;;;;5055822;28;20025;-67
2022/03/12 03:42:19;;;;;;;16.73;9.73;;;;;;;;;;5055464;28;20548;-65
2022/03/12 03:44:45;;;;;;;19.50;11.02;;;;;;;;;;5055532;28;20029;-66
2022/03/12 03:47:10;;;;;;;23.55;10.02;;;;;;;;;;5055598;28;20368;-66
2022/03/12 03:49:37;;;;;;;17.85;10.43;;;;;;;;;;5055607;28;20175;-64
2022/03/12 03:52:03;;;;;;;20.60;10.75;;;;;;;;;;5055398;28;20864;-65
2022/03/12 03:54:31;;;;;;;20.00;10.35;;;;;;;;;;5055328;28;20076;-65
2022/03/12 03:56:57;;;;;;;17.45;10.35;;;;;;;;;;5054003;28;20037;-66
2022/03/12 03:59:22;;;;;;;18.75;10.45;;;;;;;;;;5055195;28;20036;-66
2022/03/12 04:01:49;;;;;;;37.60;12.73;;;;;;;;;;5055714;28;20387;-66
2022/03/12 04:04:14;;;;;;;28.08;11.13;;;;;;;;;;5054730;28;20064;-66
2022/03/12 04:06:40;;;;;;;21.70;12.57;;;;;;;;;;5055022;28;20056;-67
2022/03/12 04:09:07;;;;;;;19.85;11.50;;;;;;;;;;5053087;28;20479;-64
2022/03/12 04:11:34;;;;;;;21.60;11.63;;;;;;;;;;5054644;28;20463;-66
2022/03/12 04:14:00;;;;;;;18.77;10.73;;;;;;;;;;5054703;28;20043;-65
2022/03/12 04:16:26;;;;;;;22.15;12.00;;;;;;;;;;5054848;28;20021;-65
2022/03/12 04:18:52;;;;;;;21.35;11.40;;;;;;;;;;5055105;28;20514;-67
2022/03/12 04:21:20;;;;;;;19.60;11.55;;;;;;;;;;5055065;28;20049;-64
2022/03/12 04:23:49;;;;;;;30.55;12.10;;;;;;;;;;5054863;28;20113;-66
2022/03/12 04:26:16;;;;;;;32.80;12.23;;;;;;;;;;5048703;28;20013;-64
2022/03/12 04:28:42;;;;;;;18.55;10.27;;;;;;;;;;5052745;28;20068;-65
2022/03/12 04:31:09;;;;;;;19.20;10.95;;;;;;;;;;5054395;28;20029;-65
2022/03/12 04:33:36;;;;;;;26.13;11.75;;;;;;;;;;5051592;28;20535;-64
2022/03/12 04:36:03;;;;;;;35.53;13.32;;;;;;;;;;5038196;28;20056;-68
2022/03/12 04:38:29;;;;;;;27.48;11.20;;;;;;;;;;5034891;28;20065;-66
2022/03/12 04:40:56;;;;;;;26.58;10.85;;;;;;;;;;5037142;28;20049;-71
2022/03/12 04:43:24;;;;;;;21.48;10.02;;;;;;;;;;5054976;28;20067;-70
2022/03/12 04:45:50;;;;;;;25.92;10.38;;;;;;;;;;5050028;28;20025;-70
2022/03/12 04:48:19;;;;;;;20.80;9.80;;;;;;;;;;5054971;28;20040;-74
2022/03/12 04:50:45;;;;;;;18.45;10.13;;;;;;;;;;5054081;28;20068;-69
2022/03/12 04:53:11;;;;;;;18.45;10.15;;;;;;;;;;5053332;28;20037;-70
2022/03/12 04:55:39;;;;;;;17.85;9.95;;;;;;;;;;5054431;28;20041;-70
2022/03/12 04:58:07;;;;;;;16.60;9.27;;;;;;;;;;5054438;28;20072;-71
2022/03/12 05:00:38;;;;;;;17.98;9.77;;;;;;;;;;5054317;28;20360;-71
2022/03/12 05:03:08;;;;;;;20.35;9.88;;;;;;;;;;5054450;28;20391;-71
2022/03/12 05:05:40;;;;;;;19.73;10.43;;;;;;;;;;5054463;28;20400;-69
2022/03/12 05:14:23;;;;;;;21.67;10.88;;;;;;;;;;4572430;29;20118;-76
2022/03/12 05:16:50;;;;;;;23.92;11.07;;;;;;;;;;4926878;28;20051;-71
2022/03/12 05:19:17;;;;;;;17.95;9.75;;;;;;;;;;4914628;29;20038;-71
2022/03/12 05:21:43;;;;;;;27.52;11.48;;;;;;;;;;4899616;29;20128;-68
2022/03/12 05:24:10;;;;;;;25.25;11.20;;;;;;;;;;4899172;29;20107;-70
2022/03/12 05:26:36;;;;;;;23.88;12.25;;;;;;;;;;4898526;29;20029;-70
2022/03/12 05:29:02;;;;;;;24.52;11.98;;;;;;;;;;4895060;29;20107;-71
2022/03/12 05:31:28;;;;;;;23.77;12.88;;;;;;;;;;4892455;29;20413;-71
2022/03/12 05:33:54;;;;;;;24.63;14.32;;;;;;;;;;4898698;29;20028;-71
2022/03/12 05:36:19;;;;;;;30.88;16.95;;;;;;;;;;4898867;29;20049;-71
2022/03/12 05:38:45;;;;;;;32.95;16.98;;;;;;;;;;4898716;29;20065;-72
2022/03/12 05:41:11;;;;;;;29.48;16.42;;;;;;;;;;4898642;29;20033;-70
2022/03/12 05:43:41;;;;;;;25.17;14.98;;;;;;;;;;4898686;29;20025;-71
2022/03/12 05:46:07;;;;;;;26.77;13.88;;;;;;;;;;4898544;29;20037;-70
2022/03/12 05:48:33;;;;;;;41.10;13.80;;;;;;;;;;4898473;29;20314;-70
2022/03/12 05:50:59;;;;;;;22.77;11.88;;;;;;;;;;4898885;29;20037;-71
2022/03/12 05:53:25;;;;;;;18.40;10.48;;;;;;;;;;4898023;29;20372;-70
2022/03/12 05:55:52;;;;;;;23.60;11.18;;;;;;;;;;4897531;29;20171;-69
2022/03/12 05:58:19;;;;;;;18.55;9.82;;;;;;;;;;4898722;29;20024;-71
2022/03/12 06:00:47;;;;;;;17.38;9.35;;;;;;;;;;4898742;29;20124;-71
2022/03/12 06:03:13;;;;;;;14.73;9.30;;;;;;;;;;4898532;29;20032;-72
2022/03/12 06:05:42;;;;;;;18.90;8.70;;;;;;;;;;4898135;29;20043;-71
2022/03/12 06:08:09;;;;;;;15.27;9.00;;;;;;;;;;4898114;29;20103;-71
2022/03/12 06:10:35;;;;;;;12.88;7.43;;;;;;;;;;4898281;29;20029;-71
2022/03/12 06:13:06;;;;;;;16.27;9.02;;;;;;;;;;4898379;29;20443;-71
2022/03/12 06:15:36;;;;;;;12.18;7.35;;;;;;;;;;4898375;29;20556;-71
2022/03/12 06:18:02;;;;;;;11.05;7.68;;;;;;;;;;4898316;29;20041;-71
2022/03/12 06:20:27;;;;;;;10.05;7.85;;;;;;;;;;4897989;29;20096;-71
2022/03/12 06:22:54;;;;;;;12.07;7.15;;;;;;;;;;4898046;29;20033;-71
2022/03/12 06:25:22;;;;;;;12.57;6.78;;;;;;;;;;4898144;29;20024;-73
2022/03/12 06:27:57;;;;;;;9.75;6.80;;;;;;;;;;4898062;29;20084;-73
2022/03/12 06:30:25;;;;;;;12.27;6.55;;;;;;;;;;4897983;29;20044;-72
2022/03/12 06:32:52;;;;;;;9.43;7.43;;;;;;;;;;4897923;29;20075;-73
2022/03/12 06:35:18;;;;;;;12.18;7.38;;;;;;;;;;4897977;29;20036;-73
2022/03/12 06:37:45;;;;;;;10.07;6.13;;;;;;;;;;4898021;29;20076;-73
2022/03/12 06:40:17;;;;;;;13.55;8.38;;;;;;;;;;4897973;29;20407;-71
2022/03/12 06:42:45;;;;;;;14.35;6.72;;;;;;;;;;4897837;29;20040;-72
2022/03/12 06:45:13;;;;;;;9.20;5.82;;;;;;;;;;4898207;29;20051;-77
2022/03/12 06:47:39;;;;;;;10.07;6.35;;;;;;;;;;4898037;29;20235;-72
2022/03/12 06:50:09;;;;;;;14.07;7.88;;;;;;;;;;4897799;29;20020;-75
2022/03/12 06:52:35;;;;;;;11.82;8.63;;;;;;;;;;4897882;29;20394;-75
2022/03/12 06:55:01;;;;;;;10.82;7.45;;;;;;;;;;4896980;29;20036;-73
2022/03/12 06:57:27;;;;;;;12.38;7.63;;;;;;;;;;4895042;29;20036;-73
2022/03/12 06:59:53;;;;;;;11.45;7.88;;;;;;;;;;4897592;29;20368;-72
2022/03/12 07:02:19;;;;;;;10.70;7.32;;;;;;;;;;4898067;29;20052;-72
2022/03/12 07:04:45;;;;;;;11.15;6.43;;;;;;;;;;4897163;29;20028;-72
2022/03/12 07:07:11;;;;;;;13.85;7.53;;;;;;;;;;4892073;29;20089;-72
2022/03/12 07:09:37;;;;;;;9.85;6.72;;;;;;;;;;4886857;29;20421;-77
2022/03/12 07:12:03;;;;;;;9.70;7.40;;;;;;;;;;4893377;29;20041;-71
2022/03/12 07:14:32;;;;;;;16.08;6.82;;;;;;;;;;4878639;29;20049;-73
2022/03/12 07:16:58;;;;;;;11.70;7.95;;;;;;;;;;4902623;29;20512;-71
2022/03/12 07:19:24;;;;;;;10.05;7.38;;;;;;;;;;4916298;29;20114;-72
2022/03/12 07:21:50;;;;;;;10.63;7.05;;;;;;;;;;4916869;29;20064;-74
2022/03/12 07:24:17;;;;;;;12.07;7.70;;;;;;;;;;4911215;29;20024;-73
2022/03/12 07:26:44;;;;;;;10.32;6.32;;;;;;;;;;4897290;29;20037;-76
2022/03/12 07:29:09;;;;;;;10.57;6.13;;;;;;;;;;4897841;29;20033;-75
2022/03/12 07:31:37;;;;;;;8.10;6.32;;;;;;;;;;4896727;29;20092;-72
2022/03/12 07:34:04;;;;;;;11.43;6.95;;;;;;;;;;4895809;29;20027;-73
2022/03/12 07:36:30;;;;;;;12.70;6.53;;;;;;;;;;4893830;29;20037;-79
2022/03/12 07:39:03;;;;;;;10.88;6.30;;;;;;;;;;4886024;29;20076;-76
2022/03/12 07:41:30;;;;;;;9.70;7.17;;;;;;;;;;4887960;29;20087;-74
2022/03/12 07:43:56;;;;;;;9.57;6.38;;;;;;;;;;4896452;29;20279;-77
2022/03/12 07:46:22;;;;;;;7.93;5.07;;;;;;;;;;4895622;29;20036;-73
2022/03/12 07:48:48;;;;;;;10.93;6.20;;;;;;;;;;4892681;29;20369;-73
2022/03/12 07:51:14;;;;;;;12.18;6.68;;;;;;;;;;4896892;29;20067;-76
2022/03/12 07:53:40;;;;;;;15.00;7.68;;;;;;;;;;4896495;29;20044;-74
2022/03/12 07:56:08;;;;;;;9.15;5.40;;;;;;;;;;4894774;29;20036;-77
2022/03/12 07:58:35;;;;;;;8.55;5.88;;;;;;;;;;4896253;29;20029;-76
2022/03/12 08:01:03;;;;;;;9.07;5.80;;;;;;;;;;4894997;29;20029;-80
2022/03/12 08:03:29;;;;;;;10.40;6.20;;;;;;;;;;4896399;29;20032;-82
2022/03/12 08:05:56;;;;;;;10.15;5.93;;;;;;;;;;4896596;29;20043;-78
2022/03/12 08:08:22;;;;;;;11.32;6.75;;;;;;;;;;4896992;29;20379;-72
2022/03/12 08:13:32;;;;;;;9.85;7.13;;;;;;;;;;4897765;29;20053;-76
2022/03/12 08:15:59;;;;;;;11.18;6.63;;;;;;;;;;4899570;29;20036;-74
2022/03/12 08:18:25;;;;;;;9.25;6.43;;;;;;;;;;4900360;29;20448;-77
2022/03/12 08:20:51;;;;;;;9.63;5.50;;;;;;;;;;4899224;29;20475;-75
2022/03/12 08:23:17;;;;;;;10.60;6.75;;;;;;;;;;4914630;29;20484;-76
2022/03/12 08:25:43;;;;;;;9.70;5.22;;;;;;;;;;4899365;29;20039;-76
2022/03/12 08:28:09;;;;;;;11.18;5.70;;;;;;;;;;4899457;29;20064;-74
2022/03/12 08:30:36;;;;;;;7.50;5.30;;;;;;;;;;4900089;29;20043;-77
2022/03/12 08:33:04;;;;;;;8.20;5.93;;;;;;;;;;4899348;29;20044;-75
2022/03/12 08:35:31;;;;;;;9.27;5.68;;;;;;;;;;4897957;29;20024;-73
2022/03/12 08:37:57;;;;;;;10.00;6.10;;;;;;;;;;4900389;29;20029;-75
2022/03/12 08:40:25;;;;;;;10.15;6.35;;;;;;;;;;4900240;29;20037;-76
2022/03/12 08:42:54;;;;;;;11.45;5.30;;;;;;;;;;4900231;29;20076;-75
2022/03/12 08:45:21;;;;;;;13.23;6.18;;;;;;;;;;4914480;29;20051;-73
2022/03/12 08:47:47;;;;;;;8.05;4.88;;;;;;;;;;4899494;29;20044;-76
2022/03/12 08:50:13;;;;;;;9.45;5.57;;;;;;;;;;4899459;29;20037;-75
2022/03/12 08:52:41;;;;;;;10.90;6.30;;;;;;;;;;4899192;29;20043;-73
2022/03/12 08:55:07;;;;;;;9.13;6.07;;;;;;;;;;4899354;29;20050;-74
2022/03/12 08:57:33;;;;;;;11.23;5.60;;;;;;;;;;4899782;29;20104;-74
2022/03/12 08:59:59;;;;;;;7.45;4.80;;;;;;;;;;4913870;29;20464;-71
2022/03/12 09:02:28;;;;;;;12.68;6.05;;;;;;;;;;4899386;29;20122;-73
2022/03/12 09:04:54;;;;;;;8.77;4.80;;;;;;;;;;4898892;29;20032;-72
2022/03/12 09:07:20;;;;;;;9.60;4.93;;;;;;;;;;4913680;29;20459;-72
2022/03/12 09:09:46;;;;;;;10.68;4.97;;;;;;;;;;4898821;29;20027;-73
2022/03/12 09:12:12;;;;;;;11.52;6.22;;;;;;;;;;4898947;29;20116;-78
2022/03/12 09:14:38;;;;;;;12.38;6.22;;;;;;;;;;4899025;29;20132;-76
2022/03/12 09:17:04;;;;;;;7.97;5.40;;;;;;;;;;4899085;29;20100;-76
2022/03/12 09:19:32;;;;;;;12.02;5.55;;;;;;;;;;4899172;29;20088;-77
2022/03/12 09:21:58;;;;;;;14.57;5.38;;;;;;;;;;4898470;29;20044;-78
2022/03/12 09:24:25;;;;;;;9.90;6.00;;;;;;;;;;4898475;29;20032;-72
2022/03/12 09:26:51;;;;;;;8.90;5.18;;;;;;;;;;4898460;29;20064;-80
2022/03/12 09:29:17;;;;;;;8.90;5.82;;;;;;;;;;4911937;29;20483;-83
2022/03/12 09:31:44;;;;;;;10.80;6.30;;;;;;;;;;4898250;29;20064;-75
2022/03/12 09:34:09;;;;;;;8.68;5.50;;;;;;;;;;4897493;29;20439;-75
2022/03/12 09:36:36;;;;;;;5.63;4.03;;;;;;;;;;4896952;29;20185;-78
2022/03/12 09:39:06;;;;;;;8.73;5.80;;;;;;;;;;4895321;29;20043;-79
2022/03/12 09:41:34;;;;;;;7.45;5.30;;;;;;;;;;4879263;29;20048;-80
2022/03/12 09:44:01;;;;;;;8.75;5.78;;;;;;;;;;4879826;29;20503;-79
2022/03/12 09:46:27;;;;;;;10.98;5.97;;;;;;;;;;4878457;29;20488;-74
2022/03/12 09:48:52;;;;;;;7.93;5.03;;;;;;;;;;4889609;29;20025;-75
2022/03/12 09:51:18;;;;;;;8.95;4.90;;;;;;;;;;4894058;29;20364;-75
2022/03/12 09:53:45;;;;;;;7.72;5.13;;;;;;;;;;4897356;29;20040;-75
2022/03/12 09:56:11;;;;;;;9.27;5.57;;;;;;;;;;4898076;29;20040;-74
2022/03/12 09:58:37;;;;;;;9.18;6.28;;;;;;;;;;4893295;29;20109;-76
2022/03/12 10:01:03;;;;;;;10.77;5.70;;;;;;;;;;4888314;29;20414;-78
2022/03/12 10:03:28;;;;;;;7.55;4.78;;;;;;;;;;4884355;29;20040;-76
2022/03/12 10:05:55;;;;;;;7.05;4.40;;;;;;;;;;4889042;29;20049;-75
2022/03/12 10:08:20;;;;;;;8.98;5.85;;;;;;;;;;4888591;29;20036;-77
2022/03/12 10:10:47;;;;;;;10.68;4.55;;;;;;;;;;4889334;29;20033;-74
2022/03/12 10:13:13;;;;;;;8.32;4.68;;;;;;;;;;4888264;29;20389;-80
2022/03/12 10:15:39;;;;;;;6.70;5.20;;;;;;;;;;4892522;29;20040;-75
2022/03/12 10:18:05;;;;;;;7.70;5.00;;;;;;;;;;4896052;29;20124;-72
2022/03/12 10:20:31;;;;;;;7.55;6.00;;;;;;;;;;4895294;29;20047;-70
2022/03/12 10:22:57;;;;;;;6.72;4.90;;;;;;;;;;4896113;29;20041;-74
2022/03/12 10:25:23;;;;;;;10.32;5.15;;;;;;;;;;4895582;29;20036;-71
2022/03/12 10:27:50;;;;;;;10.10;4.80;;;;;;;;;;4896676;29;20025;-71
2022/03/12 10:30:16;;;;;;;9.60;5.28;;;;;;;;;;4897104;29;20087;-72
2022/03/12 10:32:44;;;;;;;8.13;5.15;;;;;;;;;;4896748;29;20056;-74
2022/03/12 10:35:14;;;;;;;8.55;6.38;;;;;;;;;;4896298;29;20075;-74
2022/03/12 10:37:41;;;;;;;8.82;5.78;;;;;;;;;;4896608;29;20016;-75
2022/03/12 10:40:08;;;;;;;14.32;6.55;;;;;;;;;;4896168;29;20044;-71
2022/03/12 10:42:36;;;;;;;9.15;5.80;;;;;;;;;;4896350;29;20036;-72
2022/03/12 10:45:10;;;;;;;11.05;5.63;;;;;;;;;;4896231;29;20057;-76
2022/03/12 10:47:45;;;;;;;9.60;6.10;;;;;;;;;;4895246;29;20076;-71
2022/03/12 10:50:18;;;;;;;7.10;5.35;;;;;;;;;;4895572;29;20388;-74
2022/03/12 10:52:49;;;;;;;8.23;5.18;;;;;;;;;;4894596;29;20033;-72
2022/03/12 10:55:26;;;;;;;15.10;6.50;;;;;;;;;;4897499;29;20036;-71
2022/03/12 10:58:12;;;;;;;7.00;4.90;;;;;;;;;;4896156;29;20116;-75
2022/03/12 11:00:40;;;;;;;8.55;5.28;;;;;;;;;;4916009;29;20036;-73
2022/03/12 11:03:12;;;;;;;10.68;5.28;;;;;;;;;;4916175;29;20394;-74
2022/03/12 11:05:41;;;;;;;8.33;4.87;;;;;;;;;;4893965;29;20439;-74
2022/03/12 11:08:07;;;;;;;9.10;5.60;;;;;;;;;;4894388;29;20025;-76
2022/03/12 11:10:37;;;;;;;8.93;6.05;;;;;;;;;;4894362;29;20040;-75
2022/03/12 11:13:04;;;;;;;13.57;6.97;;;;;;;;;;4896906;29;20049;-77
2022/03/12 11:15:32;;;;;;;6.63;4.53;;;;;;;;;;4897119;29;20040;-78
2022/03/12 11:18:05;;;;;;;9.75;4.95;;;;;;;;;;4896188;29;20061;-77
2022/03/12 11:20:35;;;;;;;8.50;5.63;;;;;;;;;;4896343;29;20344;-79
2022/03/12 11:23:12;;;;;;;8.80;5.80;;;;;;;;;;4896757;29;20033;-75
2022/03/12 11:25:59;;;;;;;8.82;5.35;;;;;;;;;;4895861;29;20173;-78
2022/03/12 11:28:28;;;;;;;9.13;5.53;;;;;;;;;;4911169;29;20040;-77
2022/03/12 11:30:55;;;;;;;13.13;5.65;;;;;;;;;;4897657;29;20037;-77
2022/03/12 11:33:25;;;;;;;12.25;6.28;;;;;;;;;;4910592;29;20499;-76
2022/03/12 11:35:58;;;;;;;9.70;6.80;;;;;;;;;;4895246;29;20040;-80
2022/03/12 11:38:24;;;;;;;9.00;6.20;;;;;;;;;;4890337;29;20029;-77
2022/03/12 11:41:03;;;;;;;8.70;5.28;;;;;;;;;;4896023;29;20028;-75
2022/03/12 11:43:31;;;;;;;7.88;4.97;;;;;;;;;;4910212;29;20108;-76
2022/03/12 11:46:03;;;;;;;13.05;6.55;;;;;;;;;;4895513;29;20037;-74
2022/03/12 11:48:36;;;;;;;12.77;6.97;;;;;;;;;;4895059;29;20115;-75
2022/03/12 11:51:14;;;;;;;11.80;8.00;;;;;;;;;;4904102;29;20514;-72
2022/03/12 11:53:40;;;;;;;11.05;6.47;;;;;;;;;;4894466;29;20120;-75
2022/03/12 11:56:07;;;;;;;11.45;6.38;;;;;;;;;;4899353;29;20108;-75
2022/03/12 11:58:34;;;;;;;8.57;5.30;;;;;;;;;;4893408;29;20044;-74
2022/03/12 12:00:59;;;;;;;12.43;6.15;;;;;;;;;;4900771;29;20024;-74
2022/03/12 12:03:26;;;;;;;11.75;7.28;;;;;;;;;;4900565;29;20054;-79
2022/03/12 12:05:55;;;;;;;12.93;6.50;;;;;;;;;;4900890;29;20080;-79
2022/03/12 12:08:20;;;;;;;11.63;7.90;;;;;;;;;;4899786;29;20064;-74
2022/03/12 12:10:46;;;;;;;10.77;5.57;;;;;;;;;;4899074;29;20048;-72
2022/03/12 12:13:13;;;;;;;9.38;5.53;;;;;;;;;;4895975;29;20498;-77
2022/03/12 12:15:43;;;;;;;16.92;7.65;;;;;;;;;;4898847;29;20040;-74
2022/03/12 12:18:12;;;;;;;12.15;6.68;;;;;;;;;;4897187;29;20476;-72
2022/03/12 12:20:40;;;;;;;11.75;6.22;;;;;;;;;;4899546;29;20037;-72
2022/03/12 12:23:12;;;;;;;8.55;4.50;;;;;;;;;;4894668;29;20063;-72
2022/03/12 12:25:38;;;;;;;11.38;6.95;;;;;;;;;;4904913;29;20465;-71
2022/03/12 12:28:18;;;;;;;12.07;7.35;;;;;;;;;;4899253;29;20120;-70
2022/03/12 12:30:49;;;;;;;9.82;6.78;;;;;;;;;;4898889;29;20494;-73
2022/03/12 12:33:19;;;;;;;12.25;7.28;;;;;;;;;;4897686;29;20040;-71
2022/03/12 12:35:47;;;;;;;11.05;7.80;;;;;;;;;;4893089;29;20044;-74
2022/03/12 12:38:15;;;;;;;10.90;6.70;;;;;;;;;;4897655;29;20036;-74
2022/03/12 12:40:47;;;;;;;7.55;4.65;;;;;;;;;;4898176;29;20028;-73
2022/03/12 12:43:20;;;;;;;8.15;5.05;;;;;;;;;;4897826;29;20085;-72
2022/03/12 12:45:46;;;;;;;9.55;6.03;;;;;;;;;;4894444;29;20047;-73
2022/03/12 12:48:14;;;;;;;14.60;7.07;;;;;;;;;;4896362;29;20029;-75
2022/03/12 12:51:05;;;;;;;13.20;7.00;;;;;;;;;;4892543;29;20041;-72
2022/03/12 12:53:38;;;;;;;10.40;6.10;;;;;;;;;;4893333;29;20044;-70
2022/03/12 12:56:27;;;;;;;11.55;6.13;;;;;;;;;;4897632;29;20125;-72
2022/03/12 12:58:57;;;;;;;8.95;4.82;;;;;;;;;;4897617;29;20048;-71
2022/03/12 13:01:45;;;;;;;7.97;5.10;;;;;;;;;;4897523;29;20104;-75
2022/03/12 13:04:12;;;;;;;11.05;7.07;;;;;;;;;;4897624;29;20116;-71
2022/03/12 13:06:41;;;;;;;9.60;5.63;;;;;;;;;;4898719;29;20140;-73
2022/03/12 13:09:18;;;;;;;8.48;6.80;;;;;;;;;;4897786;29;20036;-72
2022/03/12 13:11:57;;;;;;;12.77;6.47;;;;;;;;;;4898500;29;20036;-77
2022/03/12 13:14:26;;;;;;;14.45;6.63;;;;;;;;;;4899163;29;20048;-76
2022/03/12 13:16:53;;;;;;;11.38;6.70;;;;;;;;;;4898467;29;20036;-75
2022/03/12 13:19:28;;;;;;;8.10;5.18;;;;;;;;;;4899139;29;20043;-75
2022/03/12 13:22:04;;;;;;;8.23;5.82;;;;;;;;;;4898676;29;20498;-76
2022/03/12 13:24:49;;;;;;;9.55;5.57;;;;;;;;;;4898378;29;20115;-75
2022/03/12 13:27:30;;;;;;;10.23;5.82;;;;;;;;;;4898890;29;20029;-76
2022/03/12 13:30:25;;;;;;;8.40;5.28;;;;;;;;;;4897661;29;20043;-75
2022/03/12 13:32:58;;;;;;;9.60;4.72;;;;;;;;;;4898224;29;20033;-75
2022/03/12 13:35:26;;;;;;;10.52;6.00;;;;;;;;;;4898764;29;20043;-71
2022/03/12 13:37:53;;;;;;;8.93;5.45;;;;;;;;;;4899352;29;20116;-73
2022/03/12 13:40:21;;;;;;;10.15;5.88;;;;;;;;;;4898500;29;20047;-75
2022/03/12 13:43:08;;;;;;;8.88;5.28;;;;;;;;;;4897738;29;20048;-72
2022/03/12 13:45:35;;;;;;;13.57;5.10;;;;;;;;;;4899240;29;20514;-74
2022/03/12 13:48:02;;;;;;;8.95;6.15;;;;;;;;;;4896223;29;20033;-70
2022/03/12 13:50:29;;;;;;;8.05;4.82;;;;;;;;;;4898679;29;20040;-73
2022/03/12 13:52:56;;;;;;;8.85;5.32;;;;;;;;;;4893685;29;20079;-75
2022/03/12 13:55:23;;;;;;;9.25;5.18;;;;;;;;;;4898151;29;20041;-76
2022/03/12 13:57:50;;;;;;;12.93;5.97;;;;;;;;;;4897298;29;20039;-75
2022/03/12 14:00:19;;;;;;;9.30;4.85;;;;;;;;;;4896527;29;20033;-73
2022/03/12 14:02:53;;;;;;;8.23;6.05;;;;;;;;;;4897353;29;20034;-72
2022/03/12 14:05:28;;;;;;;10.88;4.47;;;;;;;;;;4896391;29;20128;-74
2022/03/12 14:07:59;;;;;;;8.80;5.18;;;;;;;;;;4894103;29;20115;-74
2022/03/12 14:10:26;;;;;;;8.25;5.38;;;;;;;;;;4895917;29;20033;-71
2022/03/12 14:13:00;;;;;;;7.78;5.65;;;;;;;;;;4897710;29;20080;-74
2022/03/12 14:15:29;;;;;;;9.00;5.00;;;;;;;;;;4897216;29;20041;-71
2022/03/12 14:17:56;;;;;;;6.75;4.45;;;;;;;;;;4898047;29;20092;-72
2022/03/12 14:20:25;;;;;;;6.38;4.03;;;;;;;;;;4897213;29;20047;-70
2022/03/12 14:22:53;;;;;;;7.68;5.90;;;;;;;;;;4897412;29;20460;-73
2022/03/12 14:25:29;;;;;;;8.63;5.57;;;;;;;;;;4897051;29;20092;-72
2022/03/12 14:27:54;;;;;;;5.53;3.65;;;;;;;;;;4897175;29;20039;-71
2022/03/12 14:30:22;;;;;;;8.18;4.05;;;;;;;;;;4897015;29;20052;-71
2022/03/12 14:32:49;;;;;;;6.93;4.13;;;;;;;;;;4897239;29;20033;-71
2022/03/12 14:35:15;;;;;;;7.35;4.03;;;;;;;;;;4897644;29;20028;-71
2022/03/12 14:37:43;;;;;;;7.20;4.72;;;;;;;;;;4897517;29;20403;-72
2022/03/12 14:40:11;;;;;;;6.63;4.70;;;;;;;;;;4897318;29;20021;-71
2022/03/12 14:42:37;;;;;;;7.88;4.90;;;;;;;;;;4896920;29;20043;-72
2022/03/12 14:45:03;;;;;;;10.85;5.43;;;;;;;;;;4896859;29;20029;-72
2022/03/12 14:47:29;;;;;;;10.50;5.72;;;;;;;;;;4897455;29;20036;-70
2022/03/12 14:49:56;;;;;;;7.85;5.15;;;;;;;;;;4897232;29;20033;-72